createdAt,value
2023-03-20T00:01:15.735Z,100.00
2023-03-20T00:03:44.011Z,100.00
2023-03-20T00:06:17.685Z,100.00
2023-03-20T00:08:47.144Z,100.00
2023-03-20T00:11:30.922Z,100.00
2023-03-20T00:14:11.970Z,100.00
2023-03-20T00:16:44.068Z,100.00
2023-03-20T00:19:18.175Z,100.00
2023-03-20T00:21:47.736Z,100.00
2023-03-20T00:24:16.679Z,100.00
2023-03-20T00:26:46.706Z,100.00
2023-03-20T00:29:31.038Z,100.00
2023-03-20T00:31:59.375Z,100.00
2023-03-20T00:34:29.866Z,100.00
2023-03-20T00:36:58.237Z,100.00
2023-03-20T00:39:27.373Z,100.00
2023-03-20T00:42:06.782Z,100.00
2023-03-20T00:44:41.978Z,100.00
2023-03-20T00:47:24.414Z,100.00
2023-03-20T00:49:56.410Z,100.00
2023-03-20T00:52:24.971Z,100.00
2023-03-20T00:54:52.955Z,100.00
2023-03-20T00:57:31.240Z,100.00
2023-03-20T01:00:02.002Z,100.00
2023-03-20T01:02:32.227Z,100.00
2023-03-20T01:05:01.276Z,100.00
2023-03-20T01:07:31.245Z,100.00
2023-03-20T01:09:58.982Z,100.00
2023-03-20T01:12:28.475Z,100.00
2023-03-20T01:14:58.276Z,100.00
2023-03-20T01:17:29.206Z,100.00
2023-03-20T01:19:57.145Z,99.48
2023-03-20T01:22:25.197Z,98.63
2023-03-20T01:24:53.298Z,98.33
2023-03-20T01:27:40.065Z,97.93
2023-03-20T01:30:40.042Z,96.86
2023-03-20T01:33:21.486Z,98.43
2023-03-20T01:35:53.984Z,96.73
2023-03-20T01:38:24.966Z,96.52
2023-03-20T01:41:10.362Z,96.37
2023-03-20T01:43:39.977Z,95.56
2023-03-20T01:46:12.079Z,94.83
2023-03-20T01:48:52.648Z,95.43
2023-03-20T01:51:36.143Z,95.63
2023-03-20T01:54:13.152Z,95.91
2023-03-20T01:56:59.752Z,95.92
2023-03-20T01:59:32.209Z,95.91
2023-03-20T02:02:00.530Z,95.43
2023-03-20T02:04:36.354Z,96.29
2023-03-20T02:07:11.192Z,97.81
2023-03-20T02:09:48.059Z,97.07
2023-03-20T02:12:21.980Z,98.45
2023-03-20T02:14:53.260Z,97.62
2023-03-20T02:17:43.702Z,99.16
2023-03-20T02:20:21.034Z,98.34
2023-03-20T02:23:30.815Z,98.64
2023-03-20T02:26:02.829Z,100.00
2023-03-20T02:29:09.151Z,100.00
2023-03-20T02:32:22.523Z,99.50
2023-03-20T02:35:02.385Z,99.93
2023-03-20T02:38:03.843Z,99.84
2023-03-20T02:40:59.461Z,99.43
2023-03-20T02:43:33.649Z,100.00
2023-03-20T02:46:28.875Z,99.97
2023-03-20T02:49:20.801Z,99.39
2023-03-20T02:52:17.670Z,97.40
2023-03-20T02:54:57.248Z,97.87
2023-03-20T02:57:52.005Z,95.29
2023-03-20T03:00:42.717Z,96.61
2023-03-20T03:03:34.423Z,94.09
2023-03-20T03:06:10.341Z,93.49
2023-03-20T03:08:43.487Z,93.84
2023-03-20T03:11:11.308Z,93.96
2023-03-20T03:13:49.864Z,94.10
2023-03-20T03:16:27.056Z,95.46
2023-03-20T03:19:07.736Z,96.75
2023-03-20T03:21:39.392Z,96.03
2023-03-20T03:24:37.363Z,96.11
2023-03-20T03:27:23.473Z,97.96
2023-03-20T03:29:57.460Z,100.00
2023-03-20T03:32:28.294Z,100.00
2023-03-20T03:34:59.978Z,98.20
2023-03-20T03:37:58.876Z,99.05
2023-03-20T03:40:42.623Z,96.52
2023-03-20T03:43:23.194Z,96.20
2023-03-20T03:46:17.421Z,95.91
2023-03-20T03:48:51.988Z,93.57
2023-03-20T03:51:26.689Z,95.87
2023-03-20T03:54:16.269Z,93.51
2023-03-20T03:56:50.395Z,96.27
2023-03-20T03:59:36.812Z,94.43
2023-03-20T04:02:08.629Z,95.13
2023-03-20T04:04:42.303Z,94.87
2023-03-20T04:07:14.255Z,93.45
2023-03-20T04:09:42.275Z,95.71
2023-03-20T04:12:32.164Z,100.00
2023-03-20T04:15:02.902Z,97.75
2023-03-20T04:17:32.517Z,95.89
2023-03-20T04:20:01.182Z,94.70
2023-03-20T04:22:28.984Z,94.85
2023-03-20T04:25:01.154Z,96.78
2023-03-20T04:27:29.183Z,99.92
2023-03-20T04:29:59.498Z,99.91
2023-03-20T04:32:50.115Z,99.48
2023-03-20T04:35:30.730Z,100.00
2023-03-20T04:38:05.947Z,100.00
2023-03-20T04:40:37.633Z,100.00
2023-03-20T04:43:16.946Z,100.00
2023-03-20T04:45:49.369Z,100.00
2023-03-20T04:48:17.289Z,100.00
2023-03-20T04:50:48.571Z,100.00
2023-03-20T04:53:18.905Z,100.00
2023-03-20T04:55:52.979Z,100.00
2023-03-20T04:58:21.337Z,100.00
2023-03-20T05:00:51.884Z,100.00
2023-03-20T05:03:22.542Z,100.00
2023-03-20T05:05:51.991Z,100.00
2023-03-20T05:08:19.796Z,100.00
2023-03-20T05:10:47.788Z,100.00
2023-03-20T05:13:35.898Z,100.00
2023-03-20T05:16:19.433Z,100.00
2023-03-20T05:18:59.672Z,100.00
2023-03-20T05:21:41.601Z,100.00
2023-03-20T05:24:25.978Z,100.00
2023-03-20T05:27:29.931Z,100.00
2023-03-20T05:31:09.815Z,100.00
2023-03-20T05:35:43.026Z,100.00
2023-03-20T05:44:27.952Z,100.00
2023-03-20T06:01:19.478Z,100.00
2023-03-20T06:27:59.865Z,100.00
2023-03-20T06:49:54.839Z,96.20
2023-03-20T06:53:02.394Z,93.43
2023-03-20T06:56:22.024Z,90.69
2023-03-20T06:59:49.166Z,89.46
2023-03-20T07:03:04.724Z,89.02
2023-03-20T07:14:56.044Z,90.31
2023-03-20T07:18:13.128Z,89.25
2023-03-20T07:21:22.309Z,86.67
2023-03-20T07:24:01.905Z,87.43
2023-03-20T07:26:37.865Z,84.43
2023-03-20T07:29:11.543Z,85.15
2023-03-20T07:31:42.001Z,84.14
2023-03-20T07:34:14.465Z,84.54
2023-03-20T07:37:14.059Z,88.98
2023-03-20T07:39:48.595Z,89.71
2023-03-20T07:42:31.266Z,84.91
2023-03-20T07:45:01.844Z,83.77
2023-03-20T07:47:32.329Z,83.94
2023-03-20T07:50:17.795Z,82.61
2023-03-20T07:52:55.569Z,82.09
2023-03-20T07:55:57.108Z,79.85
2023-03-20T08:02:07.679Z,66.12
2023-03-20T08:04:44.140Z,62.42
2023-03-20T08:07:12.893Z,59.69
2023-03-20T08:09:47.051Z,60.06
2023-03-20T08:12:24.572Z,58.53
2023-03-20T08:15:18.431Z,55.81
2023-03-20T08:18:14.425Z,55.41
2023-03-20T08:20:42.535Z,52.16
2023-03-20T08:23:13.274Z,54.41
2023-03-20T08:25:42.381Z,51.90
2023-03-20T08:28:12.010Z,50.82
2023-03-20T08:30:39.976Z,50.27
2023-03-20T08:33:07.973Z,47.81
2023-03-20T08:35:41.168Z,49.00
2023-03-20T08:38:28.296Z,45.35
2023-03-20T08:41:01.456Z,44.25
2023-03-20T08:43:43.323Z,44.80
2023-03-20T08:46:21.636Z,47.40
2023-03-20T08:49:07.977Z,44.80
2023-03-20T08:51:50.057Z,44.83
2023-03-20T08:54:27.977Z,46.12
2023-03-20T08:57:10.745Z,44.22
2023-03-20T08:59:46.401Z,43.51
2023-03-20T09:02:36.553Z,49.35
2023-03-20T09:17:17.591Z,41.55
2023-03-20T09:30:02.000Z,39.17
2023-03-20T09:37:38.380Z,38.20
2023-03-20T09:53:12.951Z,43.25
2023-03-20T10:00:06.903Z,39.10
2023-03-20T10:03:59.456Z,38.95
2023-03-20T10:07:04.980Z,42.62
2023-03-20T10:14:23.656Z,45.34
2023-03-20T10:18:02.936Z,42.61
2023-03-20T10:21:19.348Z,48.49
2023-03-20T10:24:35.352Z,46.59
2023-03-20T10:27:34.289Z,46.68
2023-03-20T10:30:28.848Z,48.24
2023-03-20T10:33:21.081Z,49.40
2023-03-20T10:36:58.020Z,50.34
2023-03-20T10:39:53.610Z,48.74
2023-03-20T10:42:58.792Z,49.11
2023-03-20T10:46:09.552Z,44.94
2023-03-20T10:49:20.021Z,47.22
2023-03-20T10:55:50.474Z,46.46
2023-03-20T10:58:34.625Z,48.49
2023-03-20T11:01:13.570Z,51.21
2023-03-20T11:03:44.672Z,51.17
2023-03-20T11:06:50.506Z,51.88
2023-03-20T11:09:36.289Z,49.86
2023-03-20T11:12:25.026Z,48.46
2023-03-20T11:15:37.173Z,49.09
2023-03-20T11:18:28.093Z,50.69
2023-03-20T11:21:18.095Z,50.79
2023-03-20T11:24:03.441Z,48.88
2023-03-20T11:27:12.224Z,51.34
2023-03-20T11:30:16.791Z,48.09
2023-03-20T11:33:13.387Z,48.22
2023-03-20T11:37:06.392Z,47.97
2023-03-20T11:40:46.435Z,49.26
2023-03-20T11:44:14.539Z,46.61
2023-03-20T11:48:04.005Z,49.05
2023-03-20T11:55:44.462Z,50.86
2023-03-20T11:59:05.372Z,47.43
2023-03-20T12:03:01.924Z,47.39
2023-03-20T12:06:15.202Z,46.33
2023-03-20T12:10:13.546Z,48.68
2023-03-20T12:13:54.138Z,48.16
2023-03-20T12:16:45.176Z,50.01
2023-03-20T12:19:45.394Z,48.93
2023-03-20T12:22:38.874Z,53.11
2023-03-20T12:25:39.621Z,48.20
2023-03-20T12:28:41.433Z,47.84
2023-03-20T12:31:47.124Z,47.73
2023-03-20T12:34:50.578Z,46.36
2023-03-20T12:37:34.889Z,46.35
2023-03-20T12:40:17.763Z,47.74
2023-03-20T12:42:58.465Z,46.23
2023-03-20T12:46:31.621Z,48.15
2023-03-20T12:53:08.740Z,50.17
2023-03-20T12:56:21.316Z,49.29
2023-03-20T12:59:10.773Z,48.75
2023-03-20T13:02:45.003Z,49.60
2023-03-20T13:17:35.741Z,48.42
2023-03-20T13:20:10.393Z,50.16
2023-03-20T13:22:54.033Z,49.17
2023-03-20T13:25:30.336Z,48.84
2023-03-20T13:28:31.058Z,51.19
2023-03-20T13:31:02.142Z,49.73
2023-03-20T13:33:57.589Z,50.50
2023-03-20T13:36:49.464Z,50.77
2023-03-20T13:39:35.585Z,51.58
2023-03-20T13:42:08.652Z,53.67
2023-03-20T13:44:36.376Z,53.23
2023-03-20T13:47:18.936Z,52.78
2023-03-20T13:49:52.180Z,52.30
2023-03-20T13:52:26.382Z,53.58
2023-03-20T13:54:59.588Z,53.05
2023-03-20T13:57:33.056Z,51.51
2023-03-20T14:00:18.863Z,51.12
2023-03-20T14:03:12.816Z,48.91
2023-03-20T14:05:43.135Z,49.15
2023-03-20T14:08:37.004Z,48.39
2023-03-20T14:11:12.341Z,48.84
2023-03-20T14:13:42.664Z,47.64
2023-03-20T14:16:12.018Z,48.64
2023-03-20T14:18:41.793Z,47.87
2023-03-20T14:21:15.320Z,50.61
2023-03-20T14:23:47.471Z,49.17
2023-03-20T14:26:26.170Z,50.94
2023-03-20T14:28:53.501Z,50.95
2023-03-20T14:31:25.330Z,50.99
2023-03-20T14:34:11.984Z,51.27
2023-03-20T14:36:52.629Z,50.41
2023-03-20T14:39:26.067Z,52.23
2023-03-20T14:42:02.261Z,52.79
2023-03-20T14:45:24.928Z,51.33
2023-03-20T14:48:36.838Z,50.38
2023-03-20T14:51:22.560Z,51.91
2023-03-20T14:54:33.530Z,51.41
2023-03-20T14:57:24.360Z,51.54
2023-03-20T14:59:57.503Z,52.02
2023-03-20T15:02:34.577Z,52.79
2023-03-20T15:05:03.264Z,52.09
2023-03-20T15:07:37.330Z,53.62
2023-03-20T15:10:05.921Z,51.52
2023-03-20T15:12:40.912Z,52.52
2023-03-20T15:15:27.558Z,51.10
2023-03-20T15:18:04.320Z,51.41
2023-03-20T15:20:34.983Z,51.42
2023-03-20T15:23:52.601Z,51.56
2023-03-20T15:26:38.648Z,52.61
2023-03-20T15:29:15.149Z,52.98
2023-03-20T15:31:43.243Z,52.69
2023-03-20T15:34:24.519Z,54.00
2023-03-20T15:36:56.732Z,53.38
2023-03-20T15:39:27.063Z,55.14
2023-03-20T15:42:04.265Z,56.54
2023-03-20T15:44:40.489Z,55.79
2023-03-20T15:47:21.959Z,54.73
2023-03-20T15:50:02.100Z,55.36
2023-03-20T15:52:52.808Z,56.60
2023-03-20T15:55:24.191Z,56.99
2023-03-20T15:57:57.070Z,56.48
2023-03-20T16:00:42.755Z,55.30
2023-03-20T16:03:17.135Z,56.30
2023-03-20T16:05:47.530Z,57.19
2023-03-20T16:08:33.349Z,56.93
2023-03-20T16:11:05.293Z,56.58
2023-03-20T16:13:46.664Z,56.81
2023-03-20T16:16:17.721Z,57.39
2023-03-20T16:18:48.114Z,57.95
2023-03-20T16:21:22.553Z,57.91
2023-03-20T16:23:53.703Z,58.71
2023-03-20T16:26:23.500Z,59.65
2023-03-20T16:29:02.839Z,58.83
2023-03-20T16:31:35.879Z,58.97
2023-03-20T16:34:10.466Z,58.99
2023-03-20T16:36:38.969Z,60.75
2023-03-20T16:39:08.644Z,60.42
2023-03-20T16:41:40.603Z,59.96
2023-03-20T16:44:32.683Z,60.20
2023-03-20T16:47:01.779Z,60.79
2023-03-20T16:49:35.096Z,62.00
2023-03-20T16:52:12.857Z,60.86
2023-03-20T16:54:40.962Z,62.56
2023-03-20T16:57:17.240Z,63.02
2023-03-20T16:59:45.898Z,63.20
2023-03-20T17:02:36.598Z,65.59
2023-03-20T17:05:07.816Z,66.23
2023-03-20T17:07:38.062Z,66.96
2023-03-20T17:10:16.968Z,66.35
2023-03-20T17:12:47.555Z,66.84
2023-03-20T17:15:34.646Z,67.24
2023-03-20T17:18:15.519Z,70.13
2023-03-20T17:20:51.776Z,69.57
2023-03-20T17:23:44.489Z,70.28
2023-03-20T17:27:12.216Z,71.65
2023-03-20T17:30:09.369Z,71.25
2023-03-20T17:37:03.513Z,73.10
2023-03-20T17:40:14.500Z,76.21
2023-03-20T17:50:45.992Z,80.29
2023-03-20T20:54:03.417Z,100.00
2023-03-20T21:14:37.174Z,100.00
2023-03-20T22:02:09.380Z,100.00
